Portada
METAR-TAF:

METAR-TAF

Aeroports :

Orsk, Rússia

latitud: 51-04-18N, longitud: 058-35-48E, altitud: 277 m

Observació

L'informe es va fer fa 57 minuts, a les 20:00 UTC
Vent 6 kt del Nord-Oest
Temperatura -2°C
Humitat 46%
Pressió 1020 hPa
Visibilitat 10 km o més
sense núvols per sota de 1500 mi sense presència de cumulonimbus.

METAR: UWOR 192000Z 32003MPS CAVOK M02/M12 Q1020 R07/CLRD65 NOSIG RMK QFE740/0987

Hora: 01:57 (20:57 UTC)

Pronòstic

L'informe es va fer fa 1 hora i 10 minuts, a les 19:47 UTC
Pronòstic vàlid del 19 a les 21 UTC al 20 a les 06 UTC
Vent 6 kt del Nord/Nord-Oest amb ràfegues de 16 kt
Visibilitat 10 km o més
Núvols disperses a una alçada de 1500 ft
Temporalment
l' 19 a les 18 UTC al 20 a les 03 UTC
Vent 6 kt del Nord

TAF: UWOR 191947Z 1921/2006 33003G08MPS 9999 SCT015 TEMPO 1918/2003 36003MPS

Observacions i pronòstics meteorològics de més de 4000 aeroports (METAR i TAF).

Les estacions disponibles són els punts grocs i vermells al mapa.

Posi el ratolí al punt desitjat per veure el nom de l'estació.

Feu clic per veure les observacions i els pronòstics meteorològics.

Per canviar el mapa: feu clic els botons verds amb una creu de color negre per apropar; al botó verd amb un guió per allunyar la imatge; o en les fletxes verdes per a mapes adjacents.


METAR-TAF: